sensor_id;sensor_type;location;lat;lon;timestamp;temperature;humidity
61339;DHT22;47213;52.362;4.606;2023-06-22T00:09:53;-7.00;17.60
61339;DHT22;47213;52.362;4.606;2023-06-22T00:14:53;-6.90;18.00
61339;DHT22;47213;52.362;4.606;2023-06-22T00:24:54;-7.00;18.30
61339;DHT22;47213;52.362;4.606;2023-06-22T00:29:53;-7.10;17.80
61339;DHT22;47213;52.362;4.606;2023-06-22T00:44:53;-6.90;17.20
61339;DHT22;47213;52.362;4.606;2023-06-22T01:04:55;-6.80;17.90
61339;DHT22;47213;52.362;4.606;2023-06-22T01:09:57;-6.90;18.50
61339;DHT22;47213;52.362;4.606;2023-06-22T01:19:54;-6.80;17.50
61339;DHT22;47213;52.362;4.606;2023-06-22T01:24:57;-6.70;18.10
61339;DHT22;47213;52.362;4.606;2023-06-22T01:29:55;-6.80;18.40
61339;DHT22;47213;52.362;4.606;2023-06-22T01:34:54;-6.60;17.80
61339;DHT22;47213;52.362;4.606;2023-06-22T01:39:53;-6.40;18.00
61339;DHT22;47213;52.362;4.606;2023-06-22T01:44:54;-6.30;18.00
61339;DHT22;47213;52.362;4.606;2023-06-22T01:49:54;-6.20;18.60
61339;DHT22;47213;52.362;4.606;2023-06-22T02:04:55;-6.10;18.90
61339;DHT22;47213;52.362;4.606;2023-06-22T02:09:54;-6.00;19.40
61339;DHT22;47213;52.362;4.606;2023-06-22T02:24:54;-5.90;20.80
61339;DHT22;47213;52.362;4.606;2023-06-22T02:29:54;-6.00;21.10
61339;DHT22;47213;52.362;4.606;2023-06-22T02:34:54;-6.10;21.00
61339;DHT22;47213;52.362;4.606;2023-06-22T02:44:54;-6.00;20.10
61339;DHT22;47213;52.362;4.606;2023-06-22T02:49:54;-6.10;21.00
61339;DHT22;47213;52.362;4.606;2023-06-22T02:54:54;-6.00;19.90
61339;DHT22;47213;52.362;4.606;2023-06-22T02:59:54;-5.90;20.90
61339;DHT22;47213;52.362;4.606;2023-06-22T03:04:54;-6.00;21.50
61339;DHT22;47213;52.362;4.606;2023-06-22T03:09:54;-5.90;22.00
61339;DHT22;47213;52.362;4.606;2023-06-22T03:14:54;-5.80;21.70
61339;DHT22;47213;52.362;4.606;2023-06-22T03:19:54;-5.90;23.50
61339;DHT22;47213;52.362;4.606;2023-06-22T03:24:54;-5.80;23.30
61339;DHT22;47213;52.362;4.606;2023-06-22T03:29:56;-5.90;23.70
61339;DHT22;47213;52.362;4.606;2023-06-22T03:34:54;-5.80;23.60
61339;DHT22;47213;52.362;4.606;2023-06-22T03:59:56;-5.90;26.10
61339;DHT22;47213;52.362;4.606;2023-06-22T04:14:54;-6.00;26.10
61339;DHT22;47213;52.362;4.606;2023-06-22T04:44:54;-6.10;26.10
61339;DHT22;47213;52.362;4.606;2023-06-22T04:49:54;-6.20;26.10
61339;DHT22;47213;52.362;4.606;2023-06-22T04:54:54;-6.30;26.10
61339;DHT22;47213;52.362;4.606;2023-06-22T05:04:54;-6.50;26.10
61339;DHT22;47213;52.362;4.606;2023-06-22T05:09:54;-6.70;26.10
61339;DHT22;47213;52.362;4.606;2023-06-22T05:14:54;-6.90;26.10
61339;DHT22;47213;52.362;4.606;2023-06-22T05:19:54;-7.20;26.10
61339;DHT22;47213;52.362;4.606;2023-06-22T05:24:54;-7.40;26.10
61339;DHT22;47213;52.362;4.606;2023-06-22T05:29:54;-7.50;26.10
61339;DHT22;47213;52.362;4.606;2023-06-22T05:34:54;-7.60;26.10
61339;DHT22;47213;52.362;4.606;2023-06-22T05:39:54;-7.80;26.10
61339;DHT22;47213;52.362;4.606;2023-06-22T05:44:54;-7.90;26.10
61339;DHT22;47213;52.362;4.606;2023-06-22T05:49:54;-8.00;26.10
61339;DHT22;47213;52.362;4.606;2023-06-22T05:54:54;-8.10;26.10
61339;DHT22;47213;52.362;4.606;2023-06-22T05:59:54;-8.20;26.10
61339;DHT22;47213;52.362;4.606;2023-06-22T06:04:54;-8.30;26.10
61339;DHT22;47213;52.362;4.606;2023-06-22T06:09:54;-8.40;26.10
61339;DHT22;47213;52.362;4.606;2023-06-22T06:14:54;-8.50;26.10
61339;DHT22;47213;52.362;4.606;2023-06-22T06:19:54;-8.60;26.10
61339;DHT22;47213;52.362;4.606;2023-06-22T06:29:54;-8.70;26.10
61339;DHT22;47213;52.362;4.606;2023-06-22T06:39:54;-8.90;26.10
61339;DHT22;47213;52.362;4.606;2023-06-22T06:54:54;-8.80;26.10
61339;DHT22;47213;52.362;4.606;2023-06-22T06:59:55;-8.90;26.10
61339;DHT22;47213;52.362;4.606;2023-06-22T07:04:54;-9.00;26.10
61339;DHT22;47213;52.362;4.606;2023-06-22T07:09:54;-9.20;26.10
61339;DHT22;47213;52.362;4.606;2023-06-22T07:15:00;-9.40;26.10
61339;DHT22;47213;52.362;4.606;2023-06-22T07:19:55;-9.60;26.10
61339;DHT22;47213;52.362;4.606;2023-06-22T07:29:54;-9.80;25.00
61339;DHT22;47213;52.362;4.606;2023-06-22T07:34:54;-9.90;23.40
61339;DHT22;47213;52.362;4.606;2023-06-22T07:39:55;-10.10;22.50
61339;DHT22;47213;52.362;4.606;2023-06-22T07:44:54;-10.20;19.90
61339;DHT22;47213;52.362;4.606;2023-06-22T07:49:57;-10.30;16.10
61339;DHT22;47213;52.362;4.606;2023-06-22T07:54:55;-10.40;16.10
61339;DHT22;47213;52.362;4.606;2023-06-22T07:59:54;-10.50;10.80
61339;DHT22;47213;52.362;4.606;2023-06-22T08:09:55;-10.70;9.20
61339;DHT22;47213;52.362;4.606;2023-06-22T08:14:55;-10.80;8.00
61339;DHT22;47213;52.362;4.606;2023-06-22T08:19:55;-11.00;5.10
61339;DHT22;47213;52.362;4.606;2023-06-22T08:24:55;-11.20;3.80
61339;DHT22;47213;52.362;4.606;2023-06-22T08:29:55;-11.30;5.80
61339;DHT22;47213;52.362;4.606;2023-06-22T08:34:55;-11.20;25.80
61339;DHT22;47213;52.362;4.606;2023-06-22T08:39:55;-11.60;23.70
61339;DHT22;47213;52.362;4.606;2023-06-22T08:44:55;-11.70;24.20
61339;DHT22;47213;52.362;4.606;2023-06-22T08:49:55;-11.90;18.20
61339;DHT22;47213;52.362;4.606;2023-06-22T08:54:55;-12.00;20.10
61339;DHT22;47213;52.362;4.606;2023-06-22T08:59:55;-12.30;17.30
61339;DHT22;47213;52.362;4.606;2023-06-22T09:04:55;-12.40;16.70
61339;DHT22;47213;52.362;4.606;2023-06-22T09:09:55;1.00;14.40
61339;DHT22;47213;52.362;4.606;2023-06-22T09:19:55;1.40;11.60
61339;DHT22;47213;52.362;4.606;2023-06-22T09:24:55;1.80;11.70
61339;DHT22;47213;52.362;4.606;2023-06-22T09:29:55;2.10;10.50
61339;DHT22;47213;52.362;4.606;2023-06-22T09:34:55;2.70;8.30
61339;DHT22;47213;52.362;4.606;2023-06-22T09:39:55;3.60;7.00
61339;DHT22;47213;52.362;4.606;2023-06-22T09:44:55;4.50;4.50
61339;DHT22;47213;52.362;4.606;2023-06-22T09:49:55;5.50;25.20
61339;DHT22;47213;52.362;4.606;2023-06-22T09:54:55;6.20;20.50
61339;DHT22;47213;52.362;4.606;2023-06-22T09:59:55;6.50;18.00
61339;DHT22;47213;52.362;4.606;2023-06-22T10:04:55;6.20;14.40
61339;DHT22;47213;52.362;4.606;2023-06-22T10:09:55;6.10;14.50
61339;DHT22;47213;52.362;4.606;2023-06-22T10:14:55;5.90;14.80
61339;DHT22;47213;52.362;4.606;2023-06-22T10:19:55;5.80;14.60
61339;DHT22;47213;52.362;4.606;2023-06-22T10:24:55;5.40;15.20
61339;DHT22;47213;52.362;4.606;2023-06-22T10:29:55;5.50;16.20
61339;DHT22;47213;52.362;4.606;2023-06-22T10:34:55;5.60;15.50
61339;DHT22;47213;52.362;4.606;2023-06-22T10:39:55;5.90;17.50
61339;DHT22;47213;52.362;4.606;2023-06-22T10:44:55;5.60;15.50
61339;DHT22;47213;52.362;4.606;2023-06-22T10:49:55;5.90;16.30
61339;DHT22;47213;52.362;4.606;2023-06-22T10:54:55;6.10;15.90
61339;DHT22;47213;52.362;4.606;2023-06-22T10:59:55;5.90;13.90
61339;DHT22;47213;52.362;4.606;2023-06-22T11:04:55;5.40;11.10
61339;DHT22;47213;52.362;4.606;2023-06-22T11:09:55;5.20;12.80
61339;DHT22;47213;52.362;4.606;2023-06-22T11:14:55;4.50;12.50
61339;DHT22;47213;52.362;4.606;2023-06-22T11:19:55;3.90;14.00
61339;DHT22;47213;52.362;4.606;2023-06-22T11:24:55;3.60;16.60
61339;DHT22;47213;52.362;4.606;2023-06-22T11:29:55;3.50;18.60
61339;DHT22;47213;52.362;4.606;2023-06-22T11:34:56;3.30;18.60
61339;DHT22;47213;52.362;4.606;2023-06-22T11:44:55;3.10;20.60
61339;DHT22;47213;52.362;4.606;2023-06-22T11:49:55;3.00;22.20
61339;DHT22;47213;52.362;4.606;2023-06-22T11:54:55;2.90;22.30
61339;DHT22;47213;52.362;4.606;2023-06-22T11:59:55;2.80;22.50
61339;DHT22;47213;52.362;4.606;2023-06-22T12:14:55;2.90;23.50
61339;DHT22;47213;52.362;4.606;2023-06-22T12:19:55;2.80;24.00
61339;DHT22;47213;52.362;4.606;2023-06-22T12:24:55;2.70;23.60
61339;DHT22;47213;52.362;4.606;2023-06-22T12:29:56;2.60;24.80
61339;DHT22;47213;52.362;4.606;2023-06-22T12:34:55;2.50;24.80
61339;DHT22;47213;52.362;4.606;2023-06-22T12:39:55;2.60;25.60
61339;DHT22;47213;52.362;4.606;2023-06-22T12:44:55;2.40;25.60
61339;DHT22;47213;52.362;4.606;2023-06-22T12:49:55;2.20;25.40
61339;DHT22;47213;52.362;4.606;2023-06-22T12:54:55;2.00;25.80
61339;DHT22;47213;52.362;4.606;2023-06-22T13:14:55;1.80;2.00
61339;DHT22;47213;52.362;4.606;2023-06-22T13:19:55;1.90;2.30
61339;DHT22;47213;52.362;4.606;2023-06-22T13:24:56;1.70;2.60
61339;DHT22;47213;52.362;4.606;2023-06-22T13:39:55;1.80;5.10
61339;DHT22;47213;52.362;4.606;2023-06-22T13:44:55;1.70;4.30
61339;DHT22;47213;52.362;4.606;2023-06-22T13:54:56;1.50;4.40
61339;DHT22;47213;52.362;4.606;2023-06-22T13:59:56;1.60;3.90
61339;DHT22;47213;52.362;4.606;2023-06-22T14:04:56;1.70;3.30
61339;DHT22;47213;52.362;4.606;2023-06-22T14:09:56;1.80;3.10
61339;DHT22;47213;52.362;4.606;2023-06-22T14:14:56;1.60;25.60
61339;DHT22;47213;52.362;4.606;2023-06-22T14:24:56;1.50;25.00
61339;DHT22;47213;52.362;4.606;2023-06-22T14:29:56;1.60;25.40
61339;DHT22;47213;52.362;4.606;2023-06-22T14:34:56;1.50;26.10
61339;DHT22;47213;52.362;4.606;2023-06-22T14:44:56;1.20;25.70
61339;DHT22;47213;52.362;4.606;2023-06-22T14:49:56;1.30;24.80
61339;DHT22;47213;52.362;4.606;2023-06-22T14:54:56;1.20;25.00
61339;DHT22;47213;52.362;4.606;2023-06-22T14:59:56;1.30;25.20
61339;DHT22;47213;52.362;4.606;2023-06-22T15:09:56;1.40;26.00
61339;DHT22;47213;52.362;4.606;2023-06-22T15:14:56;1.30;2.90
61339;DHT22;47213;52.362;4.606;2023-06-22T15:19:57;1.20;4.40
61339;DHT22;47213;52.362;4.606;2023-06-22T15:24:56;1.10;4.50
61339;DHT22;47213;52.362;4.606;2023-06-22T15:34:56;1.00;5.40
61339;DHT22;47213;52.362;4.606;2023-06-22T15:44:56;-12.60;5.90
61339;DHT22;47213;52.362;4.606;2023-06-22T16:04:56;-12.40;5.70
61339;DHT22;47213;52.362;4.606;2023-06-22T16:09:56;-12.50;6.70
61339;DHT22;47213;52.362;4.606;2023-06-22T16:24:56;-12.40;5.10
61339;DHT22;47213;52.362;4.606;2023-06-22T16:29:56;-12.50;6.00
61339;DHT22;47213;52.362;4.606;2023-06-22T16:34:56;-12.30;5.60
61339;DHT22;47213;52.362;4.606;2023-06-22T16:44:56;-12.20;5.00
61339;DHT22;47213;52.362;4.606;2023-06-22T16:49:56;-12.30;4.60
61339;DHT22;47213;52.362;4.606;2023-06-22T16:54:56;-12.20;3.00
61339;DHT22;47213;52.362;4.606;2023-06-22T17:04:56;-12.10;26.30
61339;DHT22;47213;52.362;4.606;2023-06-22T17:09:56;-12.20;2.00
61339;DHT22;47213;52.362;4.606;2023-06-22T17:19:56;-12.10;25.90
61339;DHT22;47213;52.362;4.606;2023-06-22T17:24:56;-11.90;23.90
61339;DHT22;47213;52.362;4.606;2023-06-22T17:30:12;-12.00;23.40
61339;DHT22;47213;52.362;4.606;2023-06-22T17:34:56;-11.90;22.50
61339;DHT22;47213;52.362;4.606;2023-06-22T17:39:56;-11.80;22.50
61339;DHT22;47213;52.362;4.606;2023-06-22T17:54:56;-11.70;22.70
61339;DHT22;47213;52.362;4.606;2023-06-22T18:14:57;-11.50;24.40
61339;DHT22;47213;52.362;4.606;2023-06-22T18:19:56;-11.60;24.10
61339;DHT22;47213;52.362;4.606;2023-06-22T18:24:56;-11.50;24.10
61339;DHT22;47213;52.362;4.606;2023-06-22T18:34:57;-11.30;26.30
61339;DHT22;47213;52.362;4.606;2023-06-22T18:44:56;-11.20;2.50
61339;DHT22;47213;52.362;4.606;2023-06-22T19:10:20;-11.30;5.10
61339;DHT22;47213;52.362;4.606;2023-06-22T19:15:02;-11.00;4.30
61339;DHT22;47213;52.362;4.606;2023-06-22T19:24:56;-10.90;3.00
61339;DHT22;47213;52.362;4.606;2023-06-22T19:29:56;-10.80;3.50
61339;DHT22;47213;52.362;4.606;2023-06-22T19:34:56;-10.60;3.60
61339;DHT22;47213;52.362;4.606;2023-06-22T19:44:57;-10.40;4.40
61339;DHT22;47213;52.362;4.606;2023-06-22T19:54:57;-10.20;6.10
61339;DHT22;47213;52.362;4.606;2023-06-22T19:59:57;-10.30;7.20
61339;DHT22;47213;52.362;4.606;2023-06-22T20:04:57;-10.10;7.90
61339;DHT22;47213;52.362;4.606;2023-06-22T20:10:13;-10.00;8.60
61339;DHT22;47213;52.362;4.606;2023-06-22T20:24:57;-9.80;11.90
61339;DHT22;47213;52.362;4.606;2023-06-22T20:29:57;-9.90;15.30
61339;DHT22;47213;52.362;4.606;2023-06-22T20:34:57;-9.80;16.00
61339;DHT22;47213;52.362;4.606;2023-06-22T20:39:57;-9.70;18.40
61339;DHT22;47213;52.362;4.606;2023-06-22T20:44:57;-9.60;19.20
61339;DHT22;47213;52.362;4.606;2023-06-22T20:49:57;-9.50;19.60
61339;DHT22;47213;52.362;4.606;2023-06-22T20:59:57;-9.40;20.40
61339;DHT22;47213;52.362;4.606;2023-06-22T21:09:57;-9.30;22.70
61339;DHT22;47213;52.362;4.606;2023-06-22T21:14:57;-9.20;24.10
61339;DHT22;47213;52.362;4.606;2023-06-22T21:25:13;-9.10;24.80
61339;DHT22;47213;52.362;4.606;2023-06-22T21:34:57;-8.90;23.10
61339;DHT22;47213;52.362;4.606;2023-06-22T21:39:57;-9.00;23.20
61339;DHT22;47213;52.362;4.606;2023-06-22T21:44:57;-8.90;22.10
61339;DHT22;47213;52.362;4.606;2023-06-22T21:54:57;-8.70;20.50
61339;DHT22;47213;52.362;4.606;2023-06-22T21:59:57;-8.90;20.80
61339;DHT22;47213;52.362;4.606;2023-06-22T22:04:57;-8.70;20.80
61339;DHT22;47213;52.362;4.606;2023-06-22T22:09:57;-8.80;21.20
61339;DHT22;47213;52.362;4.606;2023-06-22T22:14:57;-8.60;20.80
61339;DHT22;47213;52.362;4.606;2023-06-22T22:19:57;-8.70;21.50
61339;DHT22;47213;52.362;4.606;2023-06-22T22:29:57;-8.60;23.10
61339;DHT22;47213;52.362;4.606;2023-06-22T22:34:57;-8.50;24.80
61339;DHT22;47213;52.362;4.606;2023-06-22T22:44:57;-8.20;3.40
61339;DHT22;47213;52.362;4.606;2023-06-22T22:49:57;-8.30;7.70
61339;DHT22;47213;52.362;4.606;2023-06-22T23:04:58;-8.20;12.70
61339;DHT22;47213;52.362;4.606;2023-06-22T23:14:57;-8.10;16.20
61339;DHT22;47213;52.362;4.606;2023-06-22T23:24:57;-8.00;16.20
61339;DHT22;47213;52.362;4.606;2023-06-22T23:34:58;-7.90;16.70
61339;DHT22;47213;52.362;4.606;2023-06-22T23:44:57;-7.80;17.30
61339;DHT22;47213;52.362;4.606;2023-06-22T23:54:57;-7.70;19.00
